Imperium Gier | Od ciebie dla ciebie

Forum z prawdziwą pasją

  • Nie jesteś zalogowany.

Minecraft - Publikacje Serwerów

Wątek Odpowiedzi Odsłony Ostatni post
Ten wątek jest zamknięty Przyklejony
Przyklejony: Generator Publikacji Serwerów przez VivaLDi
0 2124 2012-01-14 09:22:46 przez VivaLDi
Ten wątek jest zamknięty Przyklejony
0 391 2012-01-13 08:22:20 przez VivaLDi
123 przez Ankros
0 14 2014-10-19 18:19:20 przez Ankros
0 8 2014-10-18 23:21:29 przez gabcraft
0 9 2014-10-18 23:20:28 przez gabcraft
0 10 2014-10-18 18:47:26 przez higame_pl
0 21 2014-10-18 03:42:02 przez Joriom
!!!!Serwer SKY-BLOCK!!!! przez Arkonexx552
0 15 2014-10-15 15:21:43 przez Arkonexx552
0 16 2014-10-09 17:43:59 przez Rivandello
Server Sky-BLock przez ZwierzaK
0 27 2014-10-06 16:05:17 przez ZwierzaK
DGCraft.pl [1.7.x] przez maniakk!
0 32 2014-10-05 18:18:22 przez maniakk!
0 30 2014-10-02 10:57:32 przez Vergras
0 21 2014-10-01 22:50:02 przez GrzmotPL
0 23 2014-09-28 15:34:11 przez ZelekCraft
serwer dgcraft przez maxpl
0 26 2014-09-27 13:59:35 przez maxpl
0 28 2014-09-27 08:31:19 przez Kio
0 29 2014-09-25 20:19:41 przez Kio
0 24 2014-09-24 15:25:51 przez Kio
DGCraft.pl [1.7.x] przez skejcik
0 22 2014-09-24 11:21:47 przez skejcik
0 27 2014-09-22 10:10:16 przez franczesan
0 27 2014-09-19 11:34:10 przez Melanz
0 25 2014-09-14 11:05:05 przez GrzmotPL
DGcraft.pl skyblock + pvp ! przez TheAdrianPl2
0 26 2014-09-13 17:41:48 przez TheAdrianPl2
0 25 2014-09-12 16:32:34 przez Magnum
0 33 2014-09-12 11:43:06 przez jawa21
0 31 2014-09-11 21:45:14 przez Marsen
0 40 2014-08-31 00:36:44 przez jawa21
Wolna Dolina! przez jatoja
0 30 2014-08-29 21:44:43 przez jatoja
mega serwer keycraft przez czechu2001
1 39 2014-08-29 19:21:25 przez MrDomian
0 44 2014-08-29 08:55:48 przez Dager31

Stopka forum

RSS
Powered by PunBB
© Copyright 2002–2008 PunBB
Polityka cookies - Wersja Lo-Fi


Darmowe Forum | Ciekawe Fora | Darmowe Fora
jakie są klany w naruto podglądam mamę, jak się rozbiera www.speedway-manager.pun.pl jeanne calment życie po stu dwudziestce numery do dziewczyn 17 lat